sensor_id;sensor_type;location;lat;lon;timestamp;pressure;altitude;pressure_sealevel;temperature;humidity
56504;BME280;48812;51.606;-0.114;2023-04-09T00:02:09;101861.53;;;15.88;54.65
56504;BME280;48812;51.606;-0.114;2023-04-09T00:04:42;101865.06;;;15.89;54.78
56504;BME280;48812;51.606;-0.114;2023-04-09T00:07:15;101864.19;;;15.90;54.99
56504;BME280;48812;51.606;-0.114;2023-04-09T00:09:47;101856.22;;;15.88;54.98
56504;BME280;48812;51.606;-0.114;2023-04-09T00:12:20;101849.09;;;15.87;54.76
56504;BME280;48812;51.606;-0.114;2023-04-09T00:14:53;101848.25;;;15.86;54.53
56504;BME280;48812;51.606;-0.114;2023-04-09T00:17:27;101852.72;;;15.86;54.55
56504;BME280;48812;51.606;-0.114;2023-04-09T00:20:00;101846.47;;;15.85;54.83
56504;BME280;48812;51.606;-0.114;2023-04-09T00:22:32;101850.94;;;15.85;54.96
56504;BME280;48812;51.606;-0.114;2023-04-09T00:25:05;101848.31;;;15.83;55.11
56504;BME280;48812;51.606;-0.114;2023-04-09T00:27:39;101848.31;;;15.83;54.80
56504;BME280;48812;51.606;-0.114;2023-04-09T00:30:13;101849.22;;;15.82;54.91
56504;BME280;48812;51.606;-0.114;2023-04-09T00:32:45;101836.78;;;15.83;55.11
56504;BME280;48812;51.606;-0.114;2023-04-09T00:35:18;101835.88;;;15.82;54.78
56504;BME280;48812;51.606;-0.114;2023-04-09T00:37:50;101840.34;;;15.82;55.04
56504;BME280;48812;51.606;-0.114;2023-04-09T00:40:23;101831.47;;;15.81;54.91
56504;BME280;48812;51.606;-0.114;2023-04-09T00:42:57;101828.81;;;15.81;54.55
56504;BME280;48812;51.606;-0.114;2023-04-09T00:45:32;101825.31;;;15.79;54.88
56504;BME280;48812;51.606;-0.114;2023-04-09T00:48:07;101819.97;;;15.79;54.93
56504;BME280;48812;51.606;-0.114;2023-04-09T00:50:40;101818.19;;;15.78;54.98
56504;BME280;48812;51.606;-0.114;2023-04-09T00:53:13;101814.63;;;15.79;54.82
56504;BME280;48812;51.606;-0.114;2023-04-09T00:55:48;101815.53;;;15.78;54.98
56504;BME280;48812;51.606;-0.114;2023-04-09T00:58:21;101807.53;;;15.78;54.65
56504;BME280;48812;51.606;-0.114;2023-04-09T01:00:55;101806.72;;;15.76;54.73
56504;BME280;48812;51.606;-0.114;2023-04-09T01:03:29;101805.78;;;15.77;54.69
56504;BME280;48812;51.606;-0.114;2023-04-09T01:06:25;101812.00;;;15.78;54.94
56504;BME280;48812;51.606;-0.114;2023-04-09T01:09:17;101802.28;;;15.75;54.41
56504;BME280;48812;51.606;-0.114;2023-04-09T01:15:13;101790.72;;;15.76;54.78
56504;BME280;48812;51.606;-0.114;2023-04-09T01:17:52;101788.97;;;15.74;54.62
56504;BME280;48812;51.606;-0.114;2023-04-09T01:21:16;101788.09;;;15.73;55.11
56504;BME280;48812;51.606;-0.114;2023-04-09T01:28:17;101789.00;;;15.72;55.07
56504;BME280;48812;51.606;-0.114;2023-04-09T01:30:55;101786.34;;;15.72;54.75
56504;BME280;48812;51.606;-0.114;2023-04-09T01:33:30;101788.19;;;15.70;55.14
56504;BME280;48812;51.606;-0.114;2023-04-09T01:36:05;101788.19;;;15.70;55.01
56504;BME280;48812;51.606;-0.114;2023-04-09T01:38:43;101780.19;;;15.70;55.10
56504;BME280;48812;51.606;-0.114;2023-04-09T01:41:19;101779.31;;;15.70;54.96
56504;BME280;48812;51.606;-0.114;2023-04-09T01:43:55;101780.22;;;15.68;54.77
56504;BME280;48812;51.606;-0.114;2023-04-09T01:46:28;101776.69;;;15.68;55.14
56504;BME280;48812;51.606;-0.114;2023-04-09T01:49:01;101780.22;;;15.68;54.82
56504;BME280;48812;51.606;-0.114;2023-04-09T01:51:36;101779.34;;;15.68;55.07
56504;BME280;48812;51.606;-0.114;2023-04-09T01:54:09;101781.13;;;15.67;54.99
56504;BME280;48812;51.606;-0.114;2023-04-09T01:56:46;101773.13;;;15.67;55.10
56504;BME280;48812;51.606;-0.114;2023-04-09T01:59:22;101766.06;;;15.66;55.11
56504;BME280;48812;51.606;-0.114;2023-04-09T02:02:06;101765.16;;;15.66;54.87
56504;BME280;48812;51.606;-0.114;2023-04-09T02:04:46;101766.09;;;15.65;54.71
56504;BME280;48812;51.606;-0.114;2023-04-09T02:07:26;101768.75;;;15.65;55.19
56504;BME280;48812;51.606;-0.114;2023-04-09T02:10:04;101759.88;;;15.64;55.17
56504;BME280;48812;51.606;-0.114;2023-04-09T02:12:39;101758.09;;;15.65;55.19
56504;BME280;48812;51.606;-0.114;2023-04-09T02:15:14;101759.91;;;15.63;55.18
56504;BME280;48812;51.606;-0.114;2023-04-09T02:17:47;101757.25;;;15.63;54.99
56504;BME280;48812;51.606;-0.114;2023-04-09T02:20:20;101759.91;;;15.63;54.72
56504;BME280;48812;51.606;-0.114;2023-04-09T02:22:53;101759.91;;;15.63;54.62
56504;BME280;48812;51.606;-0.114;2023-04-09T02:25:25;101761.72;;;15.61;54.86
56504;BME280;48812;51.606;-0.114;2023-04-09T02:28:03;101758.16;;;15.62;54.92
56504;BME280;48812;51.606;-0.114;2023-04-09T02:30:35;101748.41;;;15.59;55.11
56504;BME280;48812;51.606;-0.114;2023-04-09T02:33:09;101744.00;;;15.60;55.21
56504;BME280;48812;51.606;-0.114;2023-04-09T02:35:42;101748.41;;;15.59;55.17
56504;BME280;48812;51.606;-0.114;2023-04-09T02:38:14;101747.56;;;15.59;55.17
56504;BME280;48812;51.606;-0.114;2023-04-09T02:40:47;101745.78;;;15.58;55.05
56504;BME280;48812;51.606;-0.114;2023-04-09T02:43:20;101739.59;;;15.57;55.08
56504;BME280;48812;51.606;-0.114;2023-04-09T02:45:52;101743.19;;;15.56;54.66
56504;BME280;48812;51.606;-0.114;2023-04-09T02:48:25;101729.91;;;15.55;55.11
56504;BME280;48812;51.606;-0.114;2023-04-09T02:51:03;101738.72;;;15.57;55.34
56504;BME280;48812;51.606;-0.114;2023-04-09T02:53:37;101734.28;;;15.56;55.20
56504;BME280;48812;51.606;-0.114;2023-04-09T02:56:11;101731.63;;;15.56;54.94
56504;BME280;48812;51.606;-0.114;2023-04-09T02:58:44;101732.56;;;15.55;55.02
56504;BME280;48812;51.606;-0.114;2023-04-09T03:01:20;101738.78;;;15.54;55.12
56504;BME280;48812;51.606;-0.114;2023-04-09T03:03:54;101727.28;;;15.53;55.01
56504;BME280;48812;51.606;-0.114;2023-04-09T03:06:27;101736.16;;;15.52;55.18
56504;BME280;48812;51.606;-0.114;2023-04-09T03:09:00;101732.63;;;15.52;55.10
56504;BME280;48812;51.606;-0.114;2023-04-09T03:11:33;101730.88;;;15.51;55.38
56504;BME280;48812;51.606;-0.114;2023-04-09T03:14:05;101730.88;;;15.51;55.02
56504;BME280;48812;51.606;-0.114;2023-04-09T03:16:40;101734.44;;;15.49;54.96
56504;BME280;48812;51.606;-0.114;2023-04-09T03:19:13;101732.69;;;15.48;55.08
56504;BME280;48812;51.606;-0.114;2023-04-09T03:21:47;101731.78;;;15.49;54.94
56504;BME280;48812;51.606;-0.114;2023-04-09T03:24:21;101724.72;;;15.48;55.33
56504;BME280;48812;51.606;-0.114;2023-04-09T03:26:56;101724.72;;;15.48;55.10
56504;BME280;48812;51.606;-0.114;2023-04-09T03:29:55;101728.28;;;15.47;54.92
56504;BME280;48812;51.606;-0.114;2023-04-09T03:32:37;101724.78;;;15.45;55.55
56504;BME280;48812;51.606;-0.114;2023-04-09T03:35:11;101719.44;;;15.45;54.74
56504;BME280;48812;51.606;-0.114;2023-04-09T03:37:48;101717.69;;;15.44;54.91
56504;BME280;48812;51.606;-0.114;2023-04-09T03:40:23;101712.38;;;15.43;55.20
56504;BME280;48812;51.606;-0.114;2023-04-09T03:42:57;101711.50;;;15.42;54.99
56504;BME280;48812;51.606;-0.114;2023-04-09T03:45:29;101719.50;;;15.42;55.49
56504;BME280;48812;51.606;-0.114;2023-04-09T03:48:16;101712.50;;;15.38;55.26
56504;BME280;48812;51.606;-0.114;2023-04-09T03:50:50;101718.69;;;15.40;55.12
56504;BME280;48812;51.606;-0.114;2023-04-09T03:53:34;101716.91;;;15.39;55.45
56504;BME280;48812;51.606;-0.114;2023-04-09T03:56:09;101715.16;;;15.40;55.02
56504;BME280;48812;51.606;-0.114;2023-04-09T03:58:43;101708.91;;;15.39;55.09
56504;BME280;48812;51.606;-0.114;2023-04-09T04:01:19;101705.41;;;15.37;54.83
56504;BME280;48812;51.606;-0.114;2023-04-09T04:03:59;101711.63;;;15.38;55.22
56504;BME280;48812;51.606;-0.114;2023-04-09T04:06:38;101713.41;;;15.37;54.88
56504;BME280;48812;51.606;-0.114;2023-04-09T04:09:36;101709.00;;;15.36;55.04
56504;BME280;48812;51.606;-0.114;2023-04-09T04:12:14;101712.59;;;15.35;54.91
56504;BME280;48812;51.606;-0.114;2023-04-09T04:15:08;101717.94;;;15.34;55.04
56504;BME280;48812;51.606;-0.114;2023-04-09T04:17:55;101709.94;;;15.34;55.41
56504;BME280;48812;51.606;-0.114;2023-04-09T04:21:13;101720.63;;;15.32;55.06
56504;BME280;48812;51.606;-0.114;2023-04-09T04:23:51;101717.13;;;15.32;54.83
56504;BME280;48812;51.606;-0.114;2023-04-09T04:26:29;101710.88;;;15.31;55.47
56504;BME280;48812;51.606;-0.114;2023-04-09T04:29:05;101715.34;;;15.30;55.33
56504;BME280;48812;51.606;-0.114;2023-04-09T04:31:50;101706.50;;;15.30;55.40
56504;BME280;48812;51.606;-0.114;2023-04-09T04:34:26;101707.38;;;15.29;55.61
56504;BME280;48812;51.606;-0.114;2023-04-09T04:37:08;101710.94;;;15.28;55.23
56504;BME280;48812;51.606;-0.114;2023-04-09T04:39:42;101709.19;;;15.28;55.02
56504;BME280;48812;51.606;-0.114;2023-04-09T04:42:21;101704.75;;;15.27;55.08
56504;BME280;48812;51.606;-0.114;2023-04-09T04:44:54;101709.22;;;15.27;55.04
56504;BME280;48812;51.606;-0.114;2023-04-09T04:47:53;101709.25;;;15.25;55.46
56504;BME280;48812;51.606;-0.114;2023-04-09T04:50:26;101710.16;;;15.24;55.51
56504;BME280;48812;51.606;-0.114;2023-04-09T04:53:07;101709.28;;;15.24;55.31
56504;BME280;48812;51.606;-0.114;2023-04-09T04:55:48;101705.75;;;15.23;55.03
56504;BME280;48812;51.606;-0.114;2023-04-09T04:58:28;101700.44;;;15.23;54.87
56504;BME280;48812;51.606;-0.114;2023-04-09T05:01:06;101697.81;;;15.20;55.33
56504;BME280;48812;51.606;-0.114;2023-04-09T05:03:40;101701.31;;;15.22;55.13
56504;BME280;48812;51.606;-0.114;2023-04-09T05:06:28;101695.16;;;15.20;55.69
56504;BME280;48812;51.606;-0.114;2023-04-09T05:09:03;101702.25;;;15.20;55.30
56504;BME280;48812;51.606;-0.114;2023-04-09T05:11:48;101700.50;;;15.20;55.18
56504;BME280;48812;51.606;-0.114;2023-04-09T05:14:24;101688.97;;;15.18;55.67
56504;BME280;48812;51.606;-0.114;2023-04-09T05:17:00;101696.09;;;15.18;55.22
56504;BME280;48812;51.606;-0.114;2023-04-09T05:19:43;101704.09;;;15.18;55.28
56504;BME280;48812;51.606;-0.114;2023-04-09T05:22:17;101693.47;;;15.16;55.28
56504;BME280;48812;51.606;-0.114;2023-04-09T05:24:50;101696.09;;;15.18;55.33
56504;BME280;48812;51.606;-0.114;2023-04-09T05:27:24;101686.34;;;15.17;55.31
56504;BME280;48812;51.606;-0.114;2023-04-09T05:30:09;101684.59;;;15.16;55.20
56504;BME280;48812;51.606;-0.114;2023-04-09T05:32:43;101682.84;;;15.15;55.39
56504;BME280;48812;51.606;-0.114;2023-04-09T05:35:15;101687.28;;;15.16;55.33
56504;BME280;48812;51.606;-0.114;2023-04-09T05:37:49;101684.63;;;15.14;55.49
56504;BME280;48812;51.606;-0.114;2023-04-09T05:40:22;101684.66;;;15.12;55.54
56504;BME280;48812;51.606;-0.114;2023-04-09T05:42:56;101694.47;;;15.12;55.16
56504;BME280;48812;51.606;-0.114;2023-04-09T05:45:42;101683.84;;;15.10;55.11
56504;BME280;48812;51.606;-0.114;2023-04-09T05:48:15;101690.91;;;15.11;55.25
56504;BME280;48812;51.606;-0.114;2023-04-09T05:50:53;101693.56;;;15.11;55.50
56504;BME280;48812;51.606;-0.114;2023-04-09T05:53:30;101698.06;;;15.09;55.70
56504;BME280;48812;51.606;-0.114;2023-04-09T05:56:12;101699.81;;;15.10;55.51
56504;BME280;48812;51.606;-0.114;2023-04-09T05:58:51;101707.81;;;15.10;55.47
56504;BME280;48812;51.606;-0.114;2023-04-09T06:01:24;101699.84;;;15.09;55.61
56504;BME280;48812;51.606;-0.114;2023-04-09T06:03:56;101702.50;;;15.09;55.53
56504;BME280;48812;51.606;-0.114;2023-04-09T06:06:32;101698.94;;;15.08;55.34
56504;BME280;48812;51.606;-0.114;2023-04-09T06:09:04;101698.94;;;15.08;55.54
56504;BME280;48812;51.606;-0.114;2023-04-09T06:11:41;101699.84;;;15.09;55.49
56504;BME280;48812;51.606;-0.114;2023-04-09T06:14:16;101687.47;;;15.06;55.23
56504;BME280;48812;51.606;-0.114;2023-04-09T06:16:49;101700.75;;;15.08;55.11
56504;BME280;48812;51.606;-0.114;2023-04-09T06:19:22;101698.09;;;15.08;55.56
56504;BME280;48812;51.606;-0.114;2023-04-09T06:21:57;101700.78;;;15.06;55.54
56504;BME280;48812;51.606;-0.114;2023-04-09T06:24:33;101700.78;;;15.06;55.21
56504;BME280;48812;51.606;-0.114;2023-04-09T06:27:07;101699.91;;;15.06;55.50
56504;BME280;48812;51.606;-0.114;2023-04-09T06:29:39;101699.06;;;15.05;54.98
56504;BME280;48812;51.606;-0.114;2023-04-09T06:32:11;101699.06;;;15.05;55.16
56504;BME280;48812;51.606;-0.114;2023-04-09T06:34:46;101695.53;;;15.03;55.41
56504;BME280;48812;51.606;-0.114;2023-04-09T06:37:20;101686.63;;;15.04;55.08
56504;BME280;48812;51.606;-0.114;2023-04-09T06:43:45;101676.03;;;15.01;55.18
56504;BME280;48812;51.606;-0.114;2023-04-09T06:48:00;101680.50;;;15.01;55.23
56504;BME280;48812;51.606;-0.114;2023-04-09T06:51:42;101677.81;;;15.02;55.57
56504;BME280;48812;51.606;-0.114;2023-04-09T06:55:12;101664.56;;;14.99;55.30
56504;BME280;48812;51.606;-0.114;2023-04-09T06:59:03;101664.53;;;15.01;55.46
56504;BME280;48812;51.606;-0.114;2023-04-09T07:03:37;101668.91;;;15.02;55.16
56504;BME280;48812;51.606;-0.114;2023-04-09T07:07:11;101659.22;;;14.99;55.55
56504;BME280;48812;51.606;-0.114;2023-04-09T07:10:07;101663.63;;;15.00;55.18
56504;BME280;48812;51.606;-0.114;2023-04-09T07:12:45;101663.63;;;15.00;55.05
56504;BME280;48812;51.606;-0.114;2023-04-09T07:15:17;101665.38;;;15.01;55.04
56504;BME280;48812;51.606;-0.114;2023-04-09T07:17:50;101665.38;;;15.01;55.06
56504;BME280;48812;51.606;-0.114;2023-04-09T07:20:22;101668.91;;;15.02;55.68
56504;BME280;48812;51.606;-0.114;2023-04-09T07:22:56;101664.53;;;15.01;55.52
56504;BME280;48812;51.606;-0.114;2023-04-09T07:25:30;101666.25;;;15.02;55.04
56504;BME280;48812;51.606;-0.114;2023-04-09T07:28:02;101671.56;;;15.02;55.19
56504;BME280;48812;51.606;-0.114;2023-04-09T07:30:35;101658.22;;;15.03;55.74
56504;BME280;48812;51.606;-0.114;2023-04-09T07:33:08;101652.91;;;15.03;55.41
56504;BME280;48812;51.606;-0.114;2023-04-09T07:35:42;101651.09;;;15.05;55.48
56504;BME280;48812;51.606;-0.114;2023-04-09T07:38:16;101645.78;;;15.05;55.21
56504;BME280;48812;51.606;-0.114;2023-04-09T07:40:50;101650.22;;;15.05;55.02
56504;BME280;48812;51.606;-0.114;2023-04-09T07:43:22;101649.31;;;15.06;55.19
56504;BME280;48812;51.606;-0.114;2023-04-09T07:45:55;101649.31;;;15.06;55.40
56504;BME280;48812;51.606;-0.114;2023-04-09T07:48:29;101651.06;;;15.07;55.04
56504;BME280;48812;51.606;-0.114;2023-04-09T07:51:01;101650.16;;;15.08;55.11
56504;BME280;48812;51.606;-0.114;2023-04-09T07:53:34;101653.66;;;15.08;54.79
56504;BME280;48812;51.606;-0.114;2023-04-09T07:56:07;101649.28;;;15.07;54.72
56504;BME280;48812;51.606;-0.114;2023-04-09T07:58:42;101652.78;;;15.09;54.89
56504;BME280;48812;51.606;-0.114;2023-04-09T08:01:14;101656.31;;;15.10;54.90
56504;BME280;48812;51.606;-0.114;2023-04-09T08:03:47;101651.00;;;15.08;54.66
56504;BME280;48812;51.606;-0.114;2023-04-09T08:06:23;101652.78;;;15.09;55.26
56504;BME280;48812;51.606;-0.114;2023-04-09T08:08:55;101652.78;;;15.09;54.70
56504;BME280;48812;51.606;-0.114;2023-04-09T08:11:33;101657.19;;;15.10;54.58
56504;BME280;48812;51.606;-0.114;2023-04-09T08:14:10;101655.44;;;15.09;55.31
56504;BME280;48812;51.606;-0.114;2023-04-09T08:16:45;101658.09;;;15.09;54.69
56504;BME280;48812;51.606;-0.114;2023-04-09T08:19:18;101664.25;;;15.11;55.13
56504;BME280;48812;51.606;-0.114;2023-04-09T08:21:52;101666.06;;;15.11;55.14
56504;BME280;48812;51.606;-0.114;2023-04-09T08:24:25;101661.59;;;15.11;54.91
56504;BME280;48812;51.606;-0.114;2023-04-09T08:26:57;101659.88;;;15.10;55.14
56504;BME280;48812;51.606;-0.114;2023-04-09T08:29:30;101659.84;;;15.12;55.33
56504;BME280;48812;51.606;-0.114;2023-04-09T08:32:05;101656.28;;;15.11;55.25
56504;BME280;48812;51.606;-0.114;2023-04-09T08:34:41;101659.81;;;15.14;55.18
56504;BME280;48812;51.606;-0.114;2023-04-09T08:37:16;101650.91;;;15.13;54.98
56504;BME280;48812;51.606;-0.114;2023-04-09T08:39:50;101654.47;;;15.14;55.36
56504;BME280;48812;51.606;-0.114;2023-04-09T08:42:25;101658.03;;;15.12;55.21
56504;BME280;48812;51.606;-0.114;2023-04-09T08:45:03;101646.50;;;15.12;55.00
56504;BME280;48812;51.606;-0.114;2023-04-09T08:47:37;101646.47;;;15.14;55.24
56504;BME280;48812;51.606;-0.114;2023-04-09T08:50:13;101646.44;;;15.15;55.11
56504;BME280;48812;51.606;-0.114;2023-04-09T08:52:46;101643.81;;;15.14;55.32
56504;BME280;48812;51.606;-0.114;2023-04-09T08:55:21;101642.03;;;15.14;55.65
56504;BME280;48812;51.606;-0.114;2023-04-09T08:57:57;101641.97;;;15.16;55.41
56504;BME280;48812;51.606;-0.114;2023-04-09T09:00:32;101630.47;;;15.15;55.65
56504;BME280;48812;51.606;-0.114;2023-04-09T09:03:09;101641.06;;;15.17;54.89
56504;BME280;48812;51.606;-0.114;2023-04-09T09:05:46;101649.03;;;15.17;55.54
56504;BME280;48812;51.606;-0.114;2023-04-09T09:08:23;101644.66;;;15.16;55.39
56504;BME280;48812;51.606;-0.114;2023-04-09T09:10:58;101647.31;;;15.16;55.05
56504;BME280;48812;51.606;-0.114;2023-04-09T09:13:34;101641.94;;;15.17;55.41
56504;BME280;48812;51.606;-0.114;2023-04-09T09:16:13;101636.59;;;15.19;55.21
56504;BME280;48812;51.606;-0.114;2023-04-09T09:18:49;101633.97;;;15.17;55.45
56504;BME280;48812;51.606;-0.114;2023-04-09T09:21:28;101645.47;;;15.18;55.56
56504;BME280;48812;51.606;-0.114;2023-04-09T09:24:02;101641.91;;;15.19;55.28
56504;BME280;48812;51.606;-0.114;2023-04-09T09:26:48;101636.59;;;15.19;55.70
56504;BME280;48812;51.606;-0.114;2023-04-09T09:29:21;101633.94;;;15.19;55.45
56504;BME280;48812;51.606;-0.114;2023-04-09T09:31:56;101636.59;;;15.19;55.30
56504;BME280;48812;51.606;-0.114;2023-04-09T09:34:31;101645.41;;;15.21;55.74
56504;BME280;48812;51.606;-0.114;2023-04-09T09:37:25;101643.59;;;15.23;55.81
56504;BME280;48812;51.606;-0.114;2023-04-09T09:40:04;101632.91;;;15.23;55.27
56504;BME280;48812;51.606;-0.114;2023-04-09T09:42:53;101628.50;;;15.23;55.42
56504;BME280;48812;51.606;-0.114;2023-04-09T09:45:28;101629.34;;;15.24;55.82
56504;BME280;48812;51.606;-0.114;2023-04-09T09:48:00;101632.84;;;15.26;55.71
56504;BME280;48812;51.606;-0.114;2023-04-09T09:50:34;101613.38;;;15.24;55.80
56504;BME280;48812;51.606;-0.114;2023-04-09T09:53:10;101616.88;;;15.26;55.49
56504;BME280;48812;51.606;-0.114;2023-04-09T09:55:47;101616.81;;;15.29;55.87
56504;BME280;48812;51.606;-0.114;2023-04-09T09:58:27;101616.81;;;15.29;55.81
56504;BME280;48812;51.606;-0.114;2023-04-09T10:01:07;101613.22;;;15.30;55.95
56504;BME280;48812;51.606;-0.114;2023-04-09T10:03:42;101608.72;;;15.32;55.65
56504;BME280;48812;51.606;-0.114;2023-04-09T10:06:15;101619.34;;;15.34;56.08
56504;BME280;48812;51.606;-0.114;2023-04-09T10:08:48;101614.00;;;15.35;56.01
56504;BME280;48812;51.606;-0.114;2023-04-09T10:11:23;101606.00;;;15.35;55.77
56504;BME280;48812;51.606;-0.114;2023-04-09T10:13:58;101614.00;;;15.35;55.80
56504;BME280;48812;51.606;-0.114;2023-04-09T10:16:31;101609.53;;;15.36;55.85
56504;BME280;48812;51.606;-0.114;2023-04-09T10:19:05;101601.53;;;15.36;55.87
56504;BME280;48812;51.606;-0.114;2023-04-09T10:24:15;101606.00;;;15.35;55.93
56504;BME280;48812;51.606;-0.114;2023-04-09T10:26:52;101598.84;;;15.37;55.96
56504;BME280;48812;51.606;-0.114;2023-04-09T10:29:30;101594.38;;;15.38;56.02
56504;BME280;48812;51.606;-0.114;2023-04-09T10:34:39;101597.00;;;15.39;55.96
56504;BME280;48812;51.606;-0.114;2023-04-09T10:37:25;101592.50;;;15.41;56.01
56504;BME280;48812;51.606;-0.114;2023-04-09T10:40:02;101586.25;;;15.42;55.76
56504;BME280;48812;51.606;-0.114;2023-04-09T10:42:38;101562.31;;;15.41;56.19
56504;BME280;48812;51.606;-0.114;2023-04-09T10:45:14;101560.47;;;15.43;55.69
56504;BME280;48812;51.606;-0.114;2023-04-09T10:47:52;101559.56;;;15.44;55.94
56504;BME280;48812;51.606;-0.114;2023-04-09T10:50:26;101547.13;;;15.44;56.18
56504;BME280;48812;51.606;-0.114;2023-04-09T10:53:03;101548.06;;;15.43;55.93
56504;BME280;48812;51.606;-0.114;2023-04-09T10:55:37;101554.22;;;15.45;56.29
56504;BME280;48812;51.606;-0.114;2023-04-09T10:58:12;101543.56;;;15.45;56.20
56504;BME280;48812;51.606;-0.114;2023-04-09T11:00:49;101541.72;;;15.47;55.73
56504;BME280;48812;51.606;-0.114;2023-04-09T11:03:25;101544.38;;;15.47;56.18
56504;BME280;48812;51.606;-0.114;2023-04-09T11:06:09;101540.81;;;15.48;55.89
56504;BME280;48812;51.606;-0.114;2023-04-09T11:08:43;101532.81;;;15.48;55.86
56504;BME280;48812;51.606;-0.114;2023-04-09T11:11:25;101525.66;;;15.51;55.80
56504;BME280;48812;51.606;-0.114;2023-04-09T11:13:59;101525.69;;;15.49;55.84
56504;BME280;48812;51.606;-0.114;2023-04-09T11:16:37;101522.06;;;15.52;55.88
56504;BME280;48812;51.606;-0.114;2023-04-09T11:19:10;101516.75;;;15.52;55.56
56504;BME280;48812;51.606;-0.114;2023-04-09T11:21:44;101530.91;;;15.54;55.93
56504;BME280;48812;51.606;-0.114;2023-04-09T11:24:18;101525.56;;;15.54;56.22
56504;BME280;48812;51.606;-0.114;2023-04-09T11:26:53;101514.03;;;15.53;55.85
56504;BME280;48812;51.606;-0.114;2023-04-09T11:29:27;101509.56;;;15.54;55.63
56504;BME280;48812;51.606;-0.114;2023-04-09T11:32:00;101497.16;;;15.53;55.37
56504;BME280;48812;51.606;-0.114;2023-04-09T11:34:34;101492.69;;;15.55;56.00
56504;BME280;48812;51.606;-0.114;2023-04-09T11:37:13;101491.75;;;15.56;55.74
56504;BME280;48812;51.606;-0.114;2023-04-09T11:44:32;101475.78;;;15.54;55.85
56504;BME280;48812;51.606;-0.114;2023-04-09T11:52:24;101472.19;;;15.57;55.96
56504;BME280;48812;51.606;-0.114;2023-04-09T11:56:27;101477.50;;;15.57;55.77
56504;BME280;48812;51.606;-0.114;2023-04-09T11:59:56;101474.03;;;15.55;55.88
56504;BME280;48812;51.606;-0.114;2023-04-09T12:03:35;101459.75;;;15.56;55.64
56504;BME280;48812;51.606;-0.114;2023-04-09T12:07:44;101457.09;;;15.56;55.96
56504;BME280;48812;51.606;-0.114;2023-04-09T12:11:46;101450.84;;;15.57;55.48
56504;BME280;48812;51.606;-0.114;2023-04-09T12:15:30;101449.00;;;15.59;55.82
56504;BME280;48812;51.606;-0.114;2023-04-09T12:23:17;101432.16;;;15.58;55.85
56504;BME280;48812;51.606;-0.114;2023-04-09T12:26:53;101433.84;;;15.61;55.38
56504;BME280;48812;51.606;-0.114;2023-04-09T12:29:28;101434.78;;;15.60;55.41
56504;BME280;48812;51.606;-0.114;2023-04-09T12:32:01;101432.94;;;15.62;55.46
56504;BME280;48812;51.606;-0.114;2023-04-09T12:34:37;101434.69;;;15.63;55.52
56504;BME280;48812;51.606;-0.114;2023-04-09T12:37:17;101431.09;;;15.64;55.87
56504;BME280;48812;51.606;-0.114;2023-04-09T12:40:57;101433.72;;;15.65;55.92
56504;BME280;48812;51.606;-0.114;2023-04-09T12:44:47;101430.13;;;15.66;55.53
56504;BME280;48812;51.606;-0.114;2023-04-09T12:52:58;101407.84;;;15.69;55.58
56504;BME280;48812;51.606;-0.114;2023-04-09T12:59:52;101403.19;;;15.76;55.34
56504;BME280;48812;51.606;-0.114;2023-04-09T13:02:57;101404.09;;;15.76;55.57
56504;BME280;48812;51.606;-0.114;2023-04-09T13:05:31;101407.47;;;15.81;55.44
56504;BME280;48812;51.606;-0.114;2023-04-09T13:08:06;101396.81;;;15.81;55.13
56504;BME280;48812;51.606;-0.114;2023-04-09T13:10:39;101386.94;;;15.85;55.13
56504;BME280;48812;51.606;-0.114;2023-04-09T13:13:15;101403.75;;;15.87;55.27
56504;BME280;48812;51.606;-0.114;2023-04-09T13:15:50;101393.03;;;15.89;55.57
56504;BME280;48812;51.606;-0.114;2023-04-09T13:18:23;101385.84;;;15.91;54.81
56504;BME280;48812;51.606;-0.114;2023-04-09T13:20:57;101383.13;;;15.92;55.44
56504;BME280;48812;51.606;-0.114;2023-04-09T13:23:34;101382.19;;;15.95;55.40
56504;BME280;48812;51.606;-0.114;2023-04-09T13:26:08;101371.44;;;15.98;54.90
56504;BME280;48812;51.606;-0.114;2023-04-09T13:28:44;101373.06;;;16.02;55.03
56504;BME280;48812;51.606;-0.114;2023-04-09T13:31:16;101369.41;;;16.06;55.20
56504;BME280;48812;51.606;-0.114;2023-04-09T13:33:49;101369.34;;;16.09;55.27
56504;BME280;48812;51.606;-0.114;2023-04-09T13:36:23;101358.44;;;16.15;54.77
56504;BME280;48812;51.606;-0.114;2023-04-09T13:38:56;101358.31;;;16.20;54.55
56504;BME280;48812;51.606;-0.114;2023-04-09T13:41:37;101359.03;;;16.25;54.80
56504;BME280;48812;51.606;-0.114;2023-04-09T13:44:10;101353.50;;;16.31;54.75
56504;BME280;48812;51.606;-0.114;2023-04-09T13:46:44;101350.56;;;16.39;54.80
56504;BME280;48812;51.606;-0.114;2023-04-09T13:49:20;101343.19;;;16.47;54.23
56504;BME280;48812;51.606;-0.114;2023-04-09T13:51:53;101334.78;;;16.58;54.46
56504;BME280;48812;51.606;-0.114;2023-04-09T13:54:30;101323.72;;;16.70;53.92
56504;BME280;48812;51.606;-0.114;2023-04-09T13:57:06;101322.28;;;16.85;53.83
56504;BME280;48812;51.606;-0.114;2023-04-09T13:59:41;101318.13;;;17.02;53.49
56504;BME280;48812;51.606;-0.114;2023-04-09T14:02:19;101311.19;;;17.21;53.31
56504;BME280;48812;51.606;-0.114;2023-04-09T14:04:56;101312.16;;;17.44;52.32
56504;BME280;48812;51.606;-0.114;2023-04-09T14:07:33;101309.63;;;17.63;52.33
56504;BME280;48812;51.606;-0.114;2023-04-09T14:10:08;101304.50;;;17.80;52.44
56504;BME280;48812;51.606;-0.114;2023-04-09T14:12:41;101303.81;;;17.97;52.47
56504;BME280;48812;51.606;-0.114;2023-04-09T14:15:14;101292.47;;;18.13;51.88
56504;BME280;48812;51.606;-0.114;2023-04-09T14:17:47;101305.97;;;18.32;51.94
56504;BME280;48812;51.606;-0.114;2023-04-09T14:20:21;101290.03;;;18.51;51.43
56504;BME280;48812;51.606;-0.114;2023-04-09T14:22:58;101287.28;;;18.73;50.97
56504;BME280;48812;51.606;-0.114;2023-04-09T14:25:34;101297.75;;;18.98;50.06
56504;BME280;48812;51.606;-0.114;2023-04-09T14:28:06;101295.50;;;19.28;49.51